首页
METAR-TAF:

METAR-TAF

机场 :

格拉茨, 奥地利

纬度: 47-00N, 经度: 015-26E, 海拔: 340米

当前天气观测

该预报发布于24分钟前的01:50 UTC
风速1节,风向多变
温度 1°C
湿度 75%
气压 1031 hPa
能见度10公里或以上

METAR: LOWG 070150Z AUTO VRB01KT 9999 NCD 01/M03 Q1031

时间: 04:14 (02:14 UTC)

预报

该预报发布于2小时和59分钟前的23:15 UTC
预报有效从07日的 00点(UTC)到 07日的 24点(UTC)
风速5节,风向东南
能见度10公里或以上
1500米以下无云,无积雨云

TAF: LOWG 062315Z 0700/0724 14005KT CAVOK TX17/0714Z TN00/0704Z

超过4000个机场的气象观测和天气预报(METAR&TAF报告)。

可查询的气象台以黄色和红色小点在地图上表示。

将鼠标移到小点上方,可查看气象台名称。

然后点击查看天气观测和预报。

如需切换地图:点击带黑十字的绿色按钮放大地图;点击带横线的绿色按钮缩小地图;或者点击绿色箭头查看邻近地区的地图。


METAR-TAF: